Time;durP1;ratioP1;P1;durP2;ratioP2;P2;SDS_P1;SDS_P2;PMS_P1;PMS_P2;Temp;Humidity;BMP_temperature;BMP_pressure;BME280_temperature;BME280_humidity;BME280_pressure;Samples;Min_cycle;Max_cycle;Signal;HPM_P1;HPM_P2
2023/12/20 00:01:23;;;;;;;;;8.00;7.00;;;;;11.16;78.13;101743.81;5054489;28;45012;-78
2023/12/20 00:03:48;;;;;;;;;6.67;6.00;;;;;11.22;77.92;101747.81;5072018;28;45127;-76
2023/12/20 00:06:14;;;;;;;;;6.00;6.00;;;;;11.18;77.31;101763.16;5056921;28;46058;-77
2023/12/20 00:08:39;;;;;;;;;9.00;7.00;;;;;10.89;76.73;101722.06;5058547;28;44992;-79
2023/12/20 00:11:05;;;;;;;;;8.00;7.33;;;;;11.06;77.17;101756.19;5060396;28;45685;-79
2023/12/20 00:13:30;;;;;;;;;9.00;8.67;;;;;11.03;76.59;101759.09;5059690;28;45042;-80
2023/12/20 00:15:55;;;;;;;;;10.33;7.00;;;;;11.09;76.60;101787.84;5059763;28;50459;-78
2023/12/20 00:18:21;;;;;;;;;5.00;5.00;;;;;10.87;75.88;101754.13;5053339;28;44913;-77
2023/12/20 00:20:46;;;;;;;;;6.00;6.00;;;;;11.02;75.93;101794.66;5051778;28;45051;-76
2023/12/20 00:23:11;;;;;;;;;6.00;6.00;;;;;11.03;75.40;101792.84;5052048;28;45428;-78
2023/12/20 00:25:37;;;;;;;;;9.00;8.00;;;;;10.97;75.28;101788.81;5056485;28;45595;-77
2023/12/20 00:28:03;;;;;;;;;6.00;6.00;;;;;10.97;75.57;101794.13;5072901;28;45250;-77
2023/12/20 00:30:28;;;;;;;;;2.67;2.67;;;;;10.85;73.68;101781.81;5071347;28;45216;-75
2023/12/20 00:32:55;;;;;;;;;3.33;3.33;;;;;10.40;72.38;101725.91;5060798;28;45182;-75
2023/12/20 00:35:21;;;;;;;;;4.33;4.00;;;;;10.80;72.77;101800.78;5075597;28;46940;-76
2023/12/20 00:37:46;;;;;;;;;1.33;1.33;;;;;10.76;71.46;101809.97;5062546;28;45237;-76
2023/12/20 00:40:11;;;;;;;;;5.33;4.00;;;;;10.68;71.48;101803.56;5054739;28;45350;-75
2023/12/20 00:42:37;;;;;;;;;3.67;2.00;;;;;10.73;70.83;101812.03;5072429;28;45084;-76
2023/12/20 00:45:04;;;;;;;;;5.67;3.33;;;;;10.60;69.98;101793.50;5065634;28;45971;-75
2023/12/20 00:47:32;;;;;;;;;1.00;1.00;;;;;10.57;69.34;101805.22;5059446;28;44902;-74
2023/12/20 00:49:58;;;;;;;;;2.00;2.00;;;;;10.54;69.91;101786.00;5059643;28;44994;-77
2023/12/20 00:52:23;;;;;;;;;2.00;1.00;;;;;10.58;69.45;101798.09;5051033;28;45110;-77
2023/12/20 00:54:49;;;;;;;;;2.33;2.00;;;;;10.68;69.31;101814.19;5058605;28;45518;-74
2023/12/20 00:57:15;;;;;;;;;1.67;1.00;;;;;10.43;69.42;101781.53;5051261;28;45042;-75
2023/12/20 00:59:40;;;;;;;;;1.00;1.00;;;;;10.25;69.03;101759.84;5051070;28;45100;-76
2023/12/20 01:02:05;;;;;;;;;2.00;1.00;;;;;10.47;68.61;101800.75;5062071;28;45639;-76
2023/12/20 01:04:31;;;;;;;;;3.00;1.00;;;;;10.46;68.02;101821.16;5063674;28;45237;-77
2023/12/20 01:06:56;;;;;;;;;0.67;0.67;;;;;10.32;68.01;101802.75;5059547;28;45137;-78
2023/12/20 01:09:26;;;;;;;;;4.00;2.00;;;;;10.31;67.55;101817.84;5059368;28;45264;-75
2023/12/20 01:11:52;;;;;;;;;1.00;1.00;;;;;10.29;67.45;101818.94;5052186;28;45187;-76
2023/12/20 01:14:17;;;;;;;;;2.67;2.00;;;;;10.21;67.47;101810.69;5051239;28;45527;-75
2023/12/20 01:16:42;;;;;;;;;0.67;0.67;;;;;10.16;67.80;101820.78;5067174;28;44996;-75
2023/12/20 01:19:08;;;;;;;;;2.33;1.33;;;;;10.12;67.86;101835.25;5056786;28;45104;-77
2023/12/20 01:21:33;;;;;;;;;0.33;0.33;;;;;10.06;68.63;101834.78;5073882;28;44953;-78
2023/12/20 01:23:58;;;;;;;;;2.67;1.33;;;;;10.02;68.44;101843.09;5055206;28;45304;-78
2023/12/20 01:26:24;;;;;;;;;2.00;1.00;;;;;9.97;68.37;101846.06;5052852;28;45096;-78
2023/12/20 01:28:49;;;;;;;;;0.00;0.00;;;;;9.92;68.77;101844.72;5061391;28;45005;-78
2023/12/20 01:31:14;;;;;;;;;1.00;1.00;;;;;9.59;69.08;101802.88;5057049;28;45058;-77
2023/12/20 01:33:40;;;;;;;;;1.00;1.00;;;;;9.80;68.68;101835.81;5058197;28;45337;-77
2023/12/20 01:36:05;;;;;;;;;1.00;1.00;;;;;9.65;69.34;101815.72;5060417;28;45271;-78
2023/12/20 01:38:30;;;;;;;;;1.00;1.00;;;;;9.80;69.47;101838.47;5063017;28;45162;-77
2023/12/20 01:40:56;;;;;;;;;1.00;1.00;;;;;9.27;69.73;101760.09;5065183;28;45039;-77
2023/12/20 01:43:21;;;;;;;;;2.00;2.00;;;;;9.66;69.55;101830.69;5055800;28;45201;-76
2023/12/20 01:45:47;;;;;;;;;2.00;0.00;;;;;9.64;69.72;101837.91;5058622;28;45119;-75
2023/12/20 01:48:15;;;;;;;;;4.00;1.00;;;;;9.58;69.21;101833.88;5054040;28;45018;-76
2023/12/20 01:50:43;;;;;;;;;0.00;0.00;;;;;9.62;69.33;101842.50;5058056;28;45038;-78
2023/12/20 01:53:10;;;;;;;;;1.33;0.00;;;;;9.58;69.22;101847.16;5063642;28;45533;-75
2023/12/20 01:55:39;;;;;;;;;2.00;1.00;;;;;9.55;69.50;101849.19;5072383;28;45073;-75
2023/12/20 01:58:05;;;;;;;;;0.33;0.33;;;;;9.53;69.75;101845.81;5055677;28;45106;-75
2023/12/20 02:00:31;;;;;;;;;1.00;1.00;;;;;9.55;69.31;101858.00;5053056;28;45232;-74
2023/12/20 02:03:00;;;;;;;;;0.00;0.00;;;;;9.18;69.10;101800.53;5052165;28;45729;-77
2023/12/20 02:05:27;;;;;;;;;0.33;0.33;;;;;9.48;69.33;101855.91;5052428;28;45135;-73
2023/12/20 02:07:53;;;;;;;;;1.00;1.00;;;;;9.52;69.49;101865.34;5053259;28;45186;-73
2023/12/20 02:10:18;;;;;;;;;1.67;1.00;;;;;9.55;69.73;101871.28;5070507;28;45253;-73
2023/12/20 02:12:44;;;;;;;;;0.00;0.00;;;;;9.58;69.53;101859.59;5049683;28;45884;-77
2023/12/20 02:15:09;;;;;;;;;1.00;1.00;;;;;9.47;69.20;101839.13;5051131;28;45146;-74
2023/12/20 02:17:37;;;;;;;;;1.33;0.67;;;;;9.56;69.30;101850.88;5058381;28;45550;-74
2023/12/20 02:20:03;;;;;;;;;3.33;1.00;;;;;9.59;68.99;101858.63;5067859;28;45123;-74
2023/12/20 02:22:28;;;;;;;;;2.00;0.00;;;;;9.65;68.95;101867.03;5062479;28;46762;-73
2023/12/20 02:24:54;;;;;;;;;1.00;0.00;;;;;9.75;69.27;101876.00;5051210;28;44945;-76
2023/12/20 02:27:19;;;;;;;;;1.00;1.00;;;;;9.77;68.50;101875.88;5057627;28;45226;-75
2023/12/20 02:29:47;;;;;;;;;0.33;0.33;;;;;9.84;68.60;101887.78;5053160;28;45260;-77
2023/12/20 02:32:12;;;;;;;;;1.00;1.00;;;;;9.85;68.70;101885.97;5049616;28;47245;-77
2023/12/20 02:34:38;;;;;;;;;1.33;1.33;;;;;9.86;68.15;101874.38;5060658;28;44929;-73
2023/12/20 02:37:03;;;;;;;;;1.00;1.00;;;;;9.69;68.22;101860.53;5057710;28;45443;-77
2023/12/20 02:39:28;;;;;;;;;1.00;0.00;;;;;9.77;68.22;101884.69;5053546;28;45290;-77
2023/12/20 02:41:54;;;;;;;;;1.00;1.00;;;;;9.68;68.28;101876.56;5048485;28;45746;-73
2023/12/20 02:44:19;;;;;;;;;1.00;1.00;;;;;9.74;67.93;101889.38;5049949;28;45155;-74
2023/12/20 02:46:44;;;;;;;;;2.00;1.00;;;;;9.63;68.15;101874.25;5054014;28;45252;-76
2023/12/20 02:49:10;;;;;;;;;0.67;0.33;;;;;9.64;68.02;101883.06;5064880;28;44966;-76
2023/12/20 02:51:38;;;;;;;;;1.00;1.00;;;;;9.67;68.34;101880.19;5052395;28;53936;-77
2023/12/20 02:54:03;;;;;;;;;2.00;2.00;;;;;9.72;68.01;101883.34;5055673;28;45374;-76
2023/12/20 02:56:29;;;;;;;;;2.00;0.00;;;;;9.71;68.02;101886.97;5066507;28;45394;-75
2023/12/20 02:58:54;;;;;;;;;1.00;1.00;;;;;9.66;68.03;101883.78;5060209;28;44928;-74
2023/12/20 03:01:19;;;;;;;;;2.00;1.00;;;;;9.63;68.52;101889.34;5054504;28;46904;-76
2023/12/20 03:03:45;;;;;;;;;1.33;1.33;;;;;9.44;67.97;101863.25;5066890;28;45392;-74
2023/12/20 03:06:10;;;;;;;;;2.33;1.67;;;;;9.55;68.40;101889.84;5050272;28;45561;-74
2023/12/20 03:08:35;;;;;;;;;1.00;1.00;;;;;9.56;68.43;101893.38;5053769;28;45321;-74
2023/12/20 03:11:01;;;;;;;;;0.00;0.00;;;;;9.48;68.20;101893.91;5063853;28;45397;-76
2023/12/20 03:13:26;;;;;;;;;0.00;0.00;;;;;9.44;68.73;101895.94;5063931;28;45426;-75
2023/12/20 03:15:52;;;;;;;;;2.00;1.00;;;;;9.42;68.36;101900.53;5062913;28;45355;-74
2023/12/20 03:18:18;;;;;;;;;1.00;1.00;;;;;9.39;68.89;101892.75;5052972;28;45374;-77
2023/12/20 03:20:43;;;;;;;;;2.00;1.00;;;;;9.30;69.16;101871.34;5060479;28;45722;-76
2023/12/20 03:23:09;;;;;;;;;2.00;1.00;;;;;9.37;69.23;101894.66;5062770;28;45440;-76
2023/12/20 03:25:34;;;;;;;;;2.67;1.33;;;;;9.33;68.91;101889.69;5058415;28;45361;-77
2023/12/20 03:28:00;;;;;;;;;2.00;1.00;;;;;9.32;69.13;101895.94;5062926;28;45410;-75
2023/12/20 03:30:25;;;;;;;;;0.00;0.00;;;;;9.30;69.13;101898.72;5059307;28;45192;-76
2023/12/20 03:32:50;;;;;;;;;0.00;0.00;;;;;8.80;69.54;101820.00;5055717;28;45131;-77
2023/12/20 03:35:16;;;;;;;;;1.33;1.00;;;;;8.77;69.18;101810.44;5069806;28;45227;-76
2023/12/20 03:37:41;;;;;;;;;0.67;0.33;;;;;9.20;69.38;101881.72;5059414;28;45142;-75
2023/12/20 03:40:07;;;;;;;;;0.00;0.00;;;;;9.20;69.07;101889.69;5069871;28;45134;-77
2023/12/20 03:42:32;;;;;;;;;4.33;3.00;;;;;9.26;69.26;101891.09;5068146;28;45172;-77
2023/12/20 03:44:57;;;;;;;;;1.00;1.00;;;;;9.18;69.53;101904.03;5061714;28;45193;-76
2023/12/20 03:47:23;;;;;;;;;3.67;0.33;;;;;8.97;69.71;101861.25;5065411;28;45122;-74
2023/12/20 03:49:48;;;;;;;;;2.00;1.00;;;;;9.14;69.59;101898.94;5055608;28;50938;-78
2023/12/20 03:52:13;;;;;;;;;3.00;1.33;;;;;9.19;69.71;101901.25;5064191;28;45116;-77
2023/12/20 03:54:41;;;;;;;;;3.00;0.50;;;;;9.14;69.61;101893.63;5060399;28;45115;-75
2023/12/20 03:57:06;;;;;;;;;0.67;0.67;;;;;9.03;69.27;101874.13;5076441;28;45024;-73
2023/12/20 03:59:36;;;;;;;;;4.00;1.33;;;;;9.16;69.73;101901.47;5062328;28;45491;-77
2023/12/20 04:02:02;;;;;;;;;1.00;0.00;;;;;9.13;69.46;101902.53;5060407;28;44949;-75
2023/12/20 04:04:27;;;;;;;;;2.00;2.00;;;;;9.12;69.89;101910.59;5061246;28;46199;-77
2023/12/20 04:06:53;;;;;;;;;0.00;0.00;;;;;9.11;69.70;101914.22;5055633;28;45079;-77
2023/12/20 04:09:18;;;;;;;;;0.00;0.00;;;;;9.12;69.94;101911.44;5060721;28;46139;-75
2023/12/20 04:11:43;;;;;;;;;0.33;0.00;;;;;9.10;70.00;101902.75;5052914;28;45300;-77
2023/12/20 04:14:10;;;;;;;;;1.00;1.00;;;;;8.66;69.82;101828.06;5064237;28;46205;-76
2023/12/20 04:16:35;;;;;;;;;2.00;1.00;;;;;8.97;69.80;101891.28;5067016;28;45067;-79
2023/12/20 04:19:00;;;;;;;;;2.67;1.00;;;;;9.01;69.91;101898.09;5067235;28;45240;-75
2023/12/20 04:21:26;;;;;;;;;3.00;2.00;;;;;8.87;70.25;101886.72;5053136;28;45173;-78
2023/12/20 04:23:51;;;;;;;;;0.00;0.00;;;;;8.99;69.86;101899.13;5060848;28;45106;-76
2023/12/20 04:26:17;;;;;;;;;2.33;1.33;;;;;9.00;69.78;101900.84;5061659;28;45082;-76
2023/12/20 04:28:42;;;;;;;;;2.00;0.67;;;;;8.99;69.90;101905.28;5061834;28;45869;-78
2023/12/20 04:31:08;;;;;;;;;3.00;2.00;;;;;8.93;70.06;101902.22;5054030;28;44968;-76
2023/12/20 04:33:33;;;;;;;;;1.00;1.00;;;;;8.95;70.12;101913.56;5053561;28;45454;-76
2023/12/20 04:35:59;;;;;;;;;1.00;1.00;;;;;8.91;70.17;101901.47;5052297;28;45598;-76
2023/12/20 04:38:25;;;;;;;;;0.00;0.00;;;;;9.01;70.01;101916.66;5053276;28;45110;-74
2023/12/20 04:40:50;;;;;;;;;3.00;2.00;;;;;9.02;70.16;101918.38;5065163;28;49361;-76
2023/12/20 04:43:15;;;;;;;;;0.67;0.67;;;;;9.01;70.20;101905.19;5055216;28;45196;-75
2023/12/20 04:45:41;;;;;;;;;2.67;1.33;;;;;9.01;69.82;101906.06;5052476;28;44942;-74
2023/12/20 04:48:06;;;;;;;;;3.67;0.33;;;;;8.98;70.14;101908.91;5066665;28;45081;-77
2023/12/20 04:50:32;;;;;;;;;1.00;1.00;;;;;8.98;70.29;101916.00;5052725;28;45297;-77
2023/12/20 04:52:58;;;;;;;;;2.33;1.00;;;;;8.95;70.47;101909.09;5058668;28;45171;-77
2023/12/20 04:55:23;;;;;;;;;1.33;1.00;;;;;8.93;70.38;101915.47;5060736;28;45220;-73
2023/12/20 04:57:49;;;;;;;;;2.00;2.00;;;;;8.81;70.27;101901.28;5059852;28;45453;-75
2023/12/20 05:00:15;;;;;;;;;0.67;0.67;;;;;8.90;70.18;101916.53;5052331;28;45240;-75
2023/12/20 05:02:41;;;;;;;;;3.00;1.00;;;;;8.89;70.38;101914.00;5057241;28;45163;-75
2023/12/20 05:05:07;;;;;;;;;1.00;1.00;;;;;8.87;70.40;101910.59;5050956;28;45095;-76
2023/12/20 05:07:32;;;;;;;;;2.00;1.00;;;;;8.73;70.76;101903.56;5052686;28;46372;-77
2023/12/20 05:09:58;;;;;;;;;1.00;1.00;;;;;8.84;70.93;101916.97;5059607;28;45041;-76
2023/12/20 05:12:24;;;;;;;;;1.00;1.00;;;;;8.78;70.38;101912.91;5053154;28;45128;-76
2023/12/20 05:14:49;;;;;;;;;3.00;1.33;;;;;8.80;70.56;101921.59;5051363;28;45097;-77
2023/12/20 05:17:14;;;;;;;;;2.00;1.00;;;;;8.78;70.49;101920.84;5051293;28;45919;-77
2023/12/20 05:19:40;;;;;;;;;1.67;1.67;;;;;8.71;70.58;101910.78;5052121;28;45135;-78
2023/12/20 05:22:05;;;;;;;;;1.00;1.00;;;;;8.74;70.77;101913.22;5058938;28;45062;-77
2023/12/20 05:24:30;;;;;;;;;1.00;1.00;;;;;8.74;70.53;101908.78;5050068;28;45251;-77
2023/12/20 05:26:55;;;;;;;;;4.33;1.00;;;;;8.82;70.55;101922.38;5061871;28;45171;-74
2023/12/20 05:29:21;;;;;;;;;3.67;1.00;;;;;8.09;70.25;101797.41;5060180;28;45121;-78
2023/12/20 05:31:46;;;;;;;;;2.33;0.00;;;;;8.80;70.26;101921.59;5054139;28;45159;-76
2023/12/20 05:34:12;;;;;;;;;1.00;1.00;;;;;8.79;70.50;101925.22;5066662;28;46273;-75
2023/12/20 05:36:38;;;;;;;;;2.67;1.67;;;;;8.78;70.43;101920.84;5057706;28;45754;-75
2023/12/20 05:39:04;;;;;;;;;1.00;1.00;;;;;8.74;70.36;101927.31;5062386;28;45233;-76
2023/12/20 05:41:30;;;;;;;;;0.67;0.00;;;;;8.67;70.62;101917.25;5072620;28;45125;-78
2023/12/20 05:43:55;;;;;;;;;2.00;1.67;;;;;8.73;70.46;101925.63;5061351;28;45202;-78
2023/12/20 05:46:21;;;;;;;;;3.33;2.00;;;;;8.73;70.25;101930.94;5052453;28;45192;-76
2023/12/20 05:48:47;;;;;;;;;1.00;1.00;;;;;8.71;70.60;101942.59;5069591;28;44998;-77
2023/12/20 05:51:13;;;;;;;;;2.33;2.33;;;;;8.68;71.04;101933.06;5059710;28;44965;-76
2023/12/20 05:53:38;;;;;;;;;5.33;3.00;;;;;8.66;71.25;101940.25;5053351;28;44862;-77
2023/12/20 05:56:04;;;;;;;;;2.00;1.00;;;;;8.63;70.98;101934.31;5057224;28;45703;-75
2023/12/20 05:58:29;;;;;;;;;2.67;1.00;;;;;8.26;70.74;101869.63;5057556;28;44959;-77
2023/12/20 06:00:55;;;;;;;;;1.00;1.00;;;;;8.68;70.89;101941.00;5058231;28;45146;-77
2023/12/20 06:03:20;;;;;;;;;2.00;1.00;;;;;8.64;71.21;101938.66;5064760;28;45518;-76
2023/12/20 06:05:45;;;;;;;;;1.33;1.33;;;;;8.66;70.74;101944.72;5059928;28;45713;-73
2023/12/20 06:08:11;;;;;;;;;1.67;1.00;;;;;8.63;70.79;101959.03;5049743;28;45509;-76
2023/12/20 06:10:36;;;;;;;;;0.00;0.00;;;;;8.53;70.61;101939.38;5051374;28;45459;-74
2023/12/20 06:13:01;;;;;;;;;4.33;2.00;;;;;8.61;70.97;101950.31;5059061;28;45249;-74
2023/12/20 06:15:27;;;;;;;;;2.00;2.00;;;;;8.51;71.07;101941.28;5052661;28;47014;-75
2023/12/20 06:17:52;;;;;;;;;1.00;0.50;;;;;8.61;70.81;101957.41;5055950;28;45126;-74
2023/12/20 06:20:17;;;;;;;;;3.67;1.67;;;;;8.61;71.01;101962.69;5052947;28;45697;-78
2023/12/20 06:22:43;;;;;;;;;1.00;1.00;;;;;8.60;70.72;101955.69;5057895;28;45493;-74
2023/12/20 06:25:08;;;;;;;;;2.00;0.67;;;;;8.60;70.96;101951.25;5051280;28;45651;-76
2023/12/20 06:27:34;;;;;;;;;1.00;1.00;;;;;8.61;70.67;101955.63;5055229;28;45290;-75
2023/12/20 06:29:59;;;;;;;;;0.67;0.67;;;;;8.40;70.87;101911.97;5050955;28;44922;-75
2023/12/20 06:32:25;;;;;;;;;1.00;1.00;;;;;8.62;71.23;101959.13;5062072;28;45235;-76
2023/12/20 06:34:50;;;;;;;;;6.00;4.00;;;;;8.51;70.89;101933.31;5048368;28;45259;-75
2023/12/20 06:37:15;;;;;;;;;2.00;2.00;;;;;8.57;70.91;101946.16;5034071;28;45806;-76
2023/12/20 06:39:41;;;;;;;;;1.00;1.00;;;;;8.56;71.00;101936.50;5039024;28;45587;-76
2023/12/20 06:42:06;;;;;;;;;8.00;7.00;;;;;8.61;71.00;101950.31;5057035;28;45587;-78
2023/12/20 06:44:32;;;;;;;;;4.00;2.00;;;;;8.61;70.94;101954.75;5055267;28;46476;-76
2023/12/20 06:46:57;;;;;;;;;1.00;1.00;;;;;8.47;70.83;101929.19;5051723;28;45066;-77
2023/12/20 06:49:23;;;;;;;;;3.00;1.67;;;;;8.55;71.01;101942.75;5048360;28;45310;-78
2023/12/20 06:51:48;;;;;;;;;3.33;2.00;;;;;8.58;71.19;101958.47;5051288;28;45295;-77
2023/12/20 06:54:13;;;;;;;;;3.33;2.00;;;;;8.39;71.08;101920.88;5053226;28;45403;-76
2023/12/20 06:56:39;;;;;;;;;1.00;1.00;;;;;8.58;71.07;101963.75;5057485;28;45204;-75
2023/12/20 06:59:04;;;;;;;;;1.00;1.00;;;;;8.51;71.21;101955.38;5051135;28;45226;-76
2023/12/20 07:01:30;;;;;;;;;2.33;2.33;;;;;8.34;71.49;101930.94;5065167;28;44964;-78
2023/12/20 07:03:55;;;;;;;;;4.00;4.00;;;;;8.51;71.60;101962.47;5053641;28;46028;-78
2023/12/20 07:06:20;;;;;;;;;4.00;3.00;;;;;8.51;71.36;101967.78;5053581;28;45090;-79
2023/12/20 07:08:46;;;;;;;;;3.00;3.00;;;;;8.45;71.63;101958.44;5057520;28;44973;-76
2023/12/20 07:11:11;;;;;;;;;3.33;2.33;;;;;8.50;71.86;101977.53;5052312;28;45248;-77
2023/12/20 07:13:37;;;;;;;;;1.67;1.33;;;;;8.51;71.63;101971.28;5061485;28;45459;-77
2023/12/20 07:16:02;;;;;;;;;3.67;1.00;;;;;8.28;71.64;101941.91;5062147;28;45654;-78
2023/12/20 07:18:28;;;;;;;;;2.67;2.33;;;;;8.52;71.64;101980.06;5041201;28;45358;-77
2023/12/20 07:20:54;;;;;;;;;5.00;3.33;;;;;8.38;71.56;101956.25;5042854;28;45578;-79
2023/12/20 07:23:20;;;;;;;;;2.00;2.00;;;;;7.74;71.95;101855.31;5039309;28;45425;-76
2023/12/20 07:25:45;;;;;;;;;5.67;3.00;;;;;8.53;71.60;101981.78;5051243;28;45613;-77
2023/12/20 07:28:11;;;;;;;;;7.00;4.00;;;;;8.54;71.62;101979.03;5046907;28;45116;-77
2023/12/20 07:30:36;;;;;;;;;3.00;3.00;;;;;8.41;71.90;101966.66;5056366;28;44937;-76
2023/12/20 07:33:02;;;;;;;;;1.67;1.67;;;;;8.46;71.81;101980.50;5069852;28;45227;-75
2023/12/20 07:35:28;;;;;;;;;2.00;2.00;;;;;8.40;71.63;101970.25;5063824;28;45514;-78
2023/12/20 07:37:53;;;;;;;;;2.00;1.00;;;;;8.50;72.56;101987.28;5047926;28;45424;-78
2023/12/20 07:40:18;;;;;;;;;3.00;3.00;;;;;8.50;72.35;102000.53;5042638;28;45491;-78
2023/12/20 07:42:44;;;;;;;;;3.00;2.00;;;;;8.39;72.13;101972.06;5045545;28;46354;-77
2023/12/20 07:45:10;;;;;;;;;5.67;3.67;;;;;8.46;71.89;101980.50;5050195;28;45282;-80
2023/12/20 07:47:36;;;;;;;;;2.33;2.33;;;;;8.50;71.98;101993.44;5043983;28;45437;-77
2023/12/20 07:50:02;;;;;;;;;10.00;6.33;;;;;8.39;72.30;101976.50;5042105;28;45326;-79
2023/12/20 07:52:28;;;;;;;;;3.33;2.00;;;;;7.79;72.25;101873.53;5040530;28;45473;-75
2023/12/20 07:54:54;;;;;;;;;6.33;3.33;;;;;8.53;72.40;101997.69;5050271;28;45415;-77
2023/12/20 07:57:19;;;;;;;;;4.00;2.33;;;;;8.44;72.17;101971.78;5057277;28;45895;-78
2023/12/20 07:59:45;;;;;;;;;4.00;3.00;;;;;8.60;72.12;102004.25;5049877;28;45430;-78
2023/12/20 08:02:10;;;;;;;;;4.00;3.00;;;;;8.63;71.91;102006.75;5052119;28;45425;-79
2023/12/20 08:04:35;;;;;;;;;3.00;3.00;;;;;8.42;71.99;101961.28;5046873;28;45323;-78
2023/12/20 08:07:01;;;;;;;;;1.00;1.00;;;;;8.35;71.91;101940.56;5038208;28;45278;-79
2023/12/20 08:09:26;;;;;;;;;1.33;1.33;;;;;8.71;71.80;101996.47;5061216;28;45773;-79
2023/12/20 08:11:51;;;;;;;;;2.00;2.00;;;;;8.70;71.62;101984.16;5057402;28;46596;-79
2023/12/20 08:14:17;;;;;;;;;3.00;3.00;;;;;8.78;71.57;102000.41;5073614;28;45165;-80
2023/12/20 08:16:42;;;;;;;;;2.67;2.33;;;;;8.79;71.69;101977.38;5063536;28;45419;-77
2023/12/20 08:19:08;;;;;;;;;5.00;3.33;;;;;8.84;71.47;101994.72;5045397;28;45183;-77
2023/12/20 08:21:33;;;;;;;;;5.00;4.00;;;;;8.84;71.53;101997.38;5039898;28;46544;-80
2023/12/20 08:24:00;;;;;;;;;6.33;5.00;;;;;8.89;71.40;101994.41;5055817;28;45173;-78
2023/12/20 08:26:26;;;;;;;;;5.00;3.67;;;;;8.89;71.31;101991.75;5057943;28;45085;-79
2023/12/20 08:28:52;;;;;;;;;4.00;3.67;;;;;8.68;71.12;101959.56;5046013;28;45812;-77
2023/12/20 08:31:18;;;;;;;;;4.00;4.00;;;;;8.87;71.14;101977.75;5073772;28;45101;-79
2023/12/20 08:33:45;;;;;;;;;4.00;4.00;;;;;9.01;70.71;101998.91;5055514;28;45128;-79
2023/12/20 08:36:10;;;;;;;;;4.00;4.00;;;;;9.03;71.13;101997.00;5063068;28;45100;-77
2023/12/20 08:38:36;;;;;;;;;5.00;3.00;;;;;9.02;70.86;101984.69;5059114;28;45271;-77
2023/12/20 08:41:02;;;;;;;;;6.00;3.00;;;;;8.50;71.02;101881.25;5075144;28;45383;-78
2023/12/20 08:43:28;;;;;;;;;4.00;3.00;;;;;8.91;70.79;101923.53;5057332;28;45433;-77
2023/12/20 08:45:53;;;;;;;;;4.33;4.33;;;;;8.98;70.06;101870.91;5052148;28;45236;-81
2023/12/20 08:48:19;;;;;;;;;4.00;3.00;;;;;10.34;68.16;101984.25;5053582;28;45256;-81
2023/12/20 08:50:49;;;;;;;;;7.33;3.00;;;;;10.96;65.61;101920.16;5045536;28;45699;-77
2023/12/20 08:53:16;;;;;;;;;3.67;2.67;;;;;11.88;61.39;101917.31;5051113;28;45401;-78
2023/12/20 08:55:42;;;;;;;;;2.33;2.33;;;;;13.01;59.77;101985.31;5040419;28;45421;-78
2023/12/20 08:58:08;;;;;;;;;5.00;3.00;;;;;13.30;57.59;101944.63;5055729;28;45283;-80
2023/12/20 09:00:34;;;;;;;;;3.33;1.67;;;;;14.01;55.92;102006.94;5053029;28;45386;-78
2023/12/20 09:02:59;;;;;;;;;5.67;4.33;;;;;13.92;55.75;101983.72;5044762;28;45406;-79
2023/12/20 09:05:25;;;;;;;;;2.67;2.67;;;;;14.09;55.09;101982.22;5046040;28;45731;-79
2023/12/20 09:07:50;;;;;;;;;3.00;3.00;;;;;13.85;55.44;102001.28;5053571;28;45314;-80
2023/12/20 09:10:16;;;;;;;;;6.67;3.00;;;;;13.36;56.68;101994.84;5059630;28;45401;-78
2023/12/20 09:12:42;;;;;;;;;6.00;3.00;;;;;12.91;57.47;101975.53;5059885;28;45092;-80
2023/12/20 09:15:08;;;;;;;;;3.33;2.00;;;;;12.75;58.35;101987.47;5061778;28;45329;-79
2023/12/20 09:17:33;;;;;;;;;7.00;6.00;;;;;12.18;59.51;101942.44;5065544;28;45088;-79
2023/12/20 09:19:59;;;;;;;;;7.33;7.33;;;;;12.19;60.05;101973.47;5063929;28;45778;-75
2023/12/20 09:22:25;;;;;;;;;5.33;5.33;;;;;12.14;60.29;101991.66;5053912;28;45381;-77
2023/12/20 09:24:51;;;;;;;;;8.00;6.00;;;;;12.19;60.73;101992.13;5072825;28;45138;-77
2023/12/20 09:27:16;;;;;;;;;5.00;3.00;;;;;11.97;60.52;101971.69;5058860;28;45086;-77
2023/12/20 09:29:42;;;;;;;;;3.00;3.00;;;;;11.88;60.96;101973.28;5062043;28;45880;-76
2023/12/20 09:32:07;;;;;;;;;4.33;3.00;;;;;11.90;60.96;102001.63;5069076;28;45050;-79
2023/12/20 09:34:33;;;;;;;;;4.00;4.00;;;;;11.81;61.58;101997.84;5069325;28;44944;-76
2023/12/20 09:36:58;;;;;;;;;5.00;3.00;;;;;11.76;61.97;101998.19;5057401;28;45351;-79
2023/12/20 09:39:24;;;;;;;;;5.67;5.33;;;;;11.71;61.69;101997.72;5066100;28;47096;-79
2023/12/20 09:41:58;;;;;;;;;5.00;3.67;;;;;11.66;62.36;101999.91;5054216;28;45209;-75
2023/12/20 09:44:24;;;;;;;;;7.67;5.67;;;;;11.55;62.31;101989.22;5061468;28;44949;-77
2023/12/20 09:46:50;;;;;;;;;11.33;10.00;;;;;11.28;62.58;101950.47;5058347;28;45043;-77
2023/12/20 09:49:19;;;;;;;;;0.67;0.67;;;;;11.31;62.14;101973.34;5057463;28;45535;-79
2023/12/20 09:51:46;;;;;;;;;7.00;4.00;;;;;11.55;62.49;102015.88;5068261;28;45132;-77
2023/12/20 09:54:17;;;;;;;;;5.33;4.67;;;;;11.59;62.95;102015.50;5055821;28;45534;-78
2023/12/20 09:56:42;;;;;;;;;10.00;8.00;;;;;11.48;62.68;101996.00;5051282;28;45439;-76
2023/12/20 09:59:08;;;;;;;;;7.00;6.33;;;;;11.55;62.63;102010.53;5041891;28;46057;-77
2023/12/20 10:01:35;;;;;;;;;4.67;3.33;;;;;10.99;62.91;101911.94;5044573;28;45756;-77
2023/12/20 10:04:04;;;;;;;;;6.33;4.00;;;;;11.15;62.74;101931.09;5047342;28;45481;-76
2023/12/20 10:06:29;;;;;;;;;4.00;3.00;;;;;11.79;63.01;102015.78;5042436;28;45302;-77
2023/12/20 10:08:55;;;;;;;;;7.00;5.00;;;;;11.58;62.89;101965.00;5047824;28;46014;-79
2023/12/20 10:11:20;;;;;;;;;10.33;6.00;;;;;11.28;62.03;101926.53;5053320;28;45293;-80
2023/12/20 10:13:48;;;;;;;;;4.00;2.00;;;;;11.31;62.28;101909.47;5047063;28;45440;-79
2023/12/20 10:16:13;;;;;;;;;4.00;4.00;;;;;11.94;62.20;102013.72;5045818;28;45451;-78
2023/12/20 10:18:39;;;;;;;;;6.00;6.00;;;;;11.87;62.21;101981.41;5044219;28;46300;-78
2023/12/20 10:21:06;;;;;;;;;1.67;1.67;;;;;11.58;61.64;101954.34;5038987;28;45564;-81
2023/12/20 10:23:32;;;;;;;;;2.67;2.67;;;;;11.89;62.28;101998.13;5060238;28;45229;-78
2023/12/20 10:26:00;;;;;;;;;3.00;3.00;;;;;11.85;62.27;101986.00;5055490;28;45328;-78
2023/12/20 10:28:29;;;;;;;;;6.33;5.67;;;;;11.71;62.40;101939.13;5064708;28;45733;-79
2023/12/20 10:30:58;;;;;;;;;8.00;6.33;;;;;12.06;62.14;101992.28;5064416;28;45399;-80
2023/12/20 10:33:28;;;;;;;;;8.00;4.00;;;;;12.13;62.20;101980.16;5067731;28;45067;-78
2023/12/20 10:35:54;;;;;;;;;3.00;3.00;;;;;11.68;61.46;101890.56;5072225;28;45411;-80
2023/12/20 10:38:20;;;;;;;;;6.67;5.00;;;;;11.19;62.00;101799.44;5071274;28;45257;-80
2023/12/20 10:40:46;;;;;;;;;8.67;5.00;;;;;11.96;61.82;101931.84;5072499;28;45134;-80
2023/12/20 10:43:12;;;;;;;;;5.33;4.00;;;;;12.08;61.86;101960.19;5058073;28;45123;-79
2023/12/20 10:45:37;;;;;;;;;7.33;4.00;;;;;11.86;61.70;101926.41;5056144;28;45205;-77
2023/12/20 10:48:04;;;;;;;;;6.33;4.33;;;;;11.74;61.40;101920.22;5070867;28;45739;-77
2023/12/20 10:50:31;;;;;;;;;7.00;7.00;;;;;12.15;61.63;101996.88;5061902;28;45567;-77
2023/12/20 10:52:57;;;;;;;;;5.33;4.00;;;;;12.13;61.65;101981.97;5065250;28;44962;-78
2023/12/20 10:55:24;;;;;;;;;3.67;3.33;;;;;12.17;61.45;101967.41;5065606;28;45327;-78
2023/12/20 10:57:52;;;;;;;;;10.50;8.00;;;;;12.23;61.79;101963.44;5065606;28;46360;-80
2023/12/20 11:00:18;;;;;;;;;6.00;5.00;;;;;12.30;60.95;101968.13;5062732;28;45002;-78
2023/12/20 11:02:44;;;;;;;;;5.00;4.00;;;;;12.13;61.04;101926.00;5065231;28;45127;-77
2023/12/20 11:05:20;;;;;;;;;3.00;3.00;;;;;11.90;60.74;101895.88;5059167;28;45402;-78
2023/12/20 11:07:56;;;;;;;;;5.67;3.00;;;;;12.01;61.10;101924.31;5068521;28;46176;-77
2023/12/20 11:10:30;;;;;;;;;4.33;4.33;;;;;12.19;61.26;101946.81;5061498;28;44838;-79
2023/12/20 11:13:18;;;;;;;;;4.00;3.00;;;;;12.15;61.13;101948.03;5037841;28;45531;-76
2023/12/20 11:15:44;;;;;;;;;5.00;3.67;;;;;12.00;61.31;101922.63;5040948;28;45439;-77
2023/12/20 11:18:10;;;;;;;;;5.00;3.00;;;;;12.03;61.44;101922.41;5040927;28;45989;-78
2023/12/20 11:20:39;;;;;;;;;8.00;5.33;;;;;12.04;61.71;101926.75;5041101;28;45651;-80
2023/12/20 11:23:06;;;;;;;;;7.67;6.00;;;;;11.86;62.04;101897.09;5049741;28;45612;-76